Time;durP1;ratioP1;P1;durP2;ratioP2;P2;SDS_P1;SDS_P2;PMS_P1;PMS_P2;Temp;Humidity;BMP_temperature;BMP_pressure;BME280_temperature;BME280_humidity;BME280_pressure;Samples;Min_cycle;Max_cycle;Signal;HPM_P1;HPM_P2
2020/12/08 00:00:29;;;;;;;10.33;7.73;;;;;;;-0.96;84.47;93976.72;5095253;28;20179;-74
2020/12/08 00:02:54;;;;;;;10.10;7.50;;;;;;;-1.01;84.55;93964.31;5095310;28;20260;-74
2020/12/08 00:05:20;;;;;;;11.23;8.40;;;;;;;-0.96;84.50;93959.69;5095580;28;20183;-74
2020/12/08 00:07:47;;;;;;;9.43;7.37;;;;;;;-0.97;84.16;93967.41;5091133;28;20171;-74
2020/12/08 00:10:18;;;;;;;9.90;8.00;;;;;;;-0.98;84.22;93964.06;5095056;28;20257;-75
2020/12/08 00:12:43;;;;;;;10.73;7.97;;;;;;;-0.91;83.78;93965.22;5078278;28;20206;-74
2020/12/08 00:15:08;;;;;;;9.93;7.63;;;;;;;-0.94;84.20;93968.00;5108256;28;20194;-74
2020/12/08 00:17:34;;;;;;;10.90;8.00;;;;;;;-0.99;84.01;93956.53;5112898;28;20605;-74
2020/12/08 00:20:00;;;;;;;11.10;8.60;;;;;;;-0.93;83.86;93967.06;5112123;28;20600;-75
2020/12/08 00:22:25;;;;;;;10.90;7.93;;;;;;;-0.89;83.52;93973.56;5113422;28;20217;-74
2020/12/08 00:24:50;;;;;;;12.60;8.77;;;;;;;-0.98;84.03;93965.78;5109416;28;20180;-74
2020/12/08 00:27:15;;;;;;;9.83;7.63;;;;;;;-0.94;84.31;93960.38;5095039;28;20241;-74
2020/12/08 00:29:41;;;;;;;9.80;7.73;;;;;;;-0.98;84.17;93964.06;5113030;28;20661;-74
2020/12/08 00:32:07;;;;;;;10.67;7.93;;;;;;;-0.78;83.56;93965.09;5113020;28;20190;-74
2020/12/08 00:34:33;;;;;;;9.67;7.27;;;;;;;-0.86;83.35;93973.34;5111918;28;20285;-74
2020/12/08 00:36:58;;;;;;;8.40;7.20;;;;;;;-0.86;83.95;93964.88;5110338;28;20297;-74
2020/12/08 00:39:24;;;;;;;10.13;7.53;;;;;;;-0.86;83.67;93968.25;5094550;28;20179;-74
2020/12/08 00:41:49;;;;;;;10.23;7.93;;;;;;;-0.84;84.00;93974.94;5112582;28;20254;-74
2020/12/08 00:44:14;;;;;;;11.10;8.20;;;;;;;-0.94;84.08;93962.91;5112863;28;20244;-75
2020/12/08 00:46:40;;;;;;;10.90;8.27;;;;;;;-0.83;83.81;93972.28;5107608;28;20188;-74
2020/12/08 00:49:06;;;;;;;10.50;8.53;;;;;;;-0.90;83.71;93964.28;5094455;28;20179;-74
2020/12/08 00:51:31;;;;;;;12.10;8.87;;;;;;;-0.85;83.76;93963.94;5094485;28;20191;-74
2020/12/08 00:53:57;;;;;;;10.97;8.20;;;;;;;-0.87;83.58;93969.16;5112792;28;20201;-75
2020/12/08 00:56:22;;;;;;;9.57;8.50;;;;;;;-0.90;84.03;93966.84;5111935;27;20207;-74
2020/12/08 00:58:47;;;;;;;12.63;8.80;;;;;;;-0.94;83.91;93964.66;5087414;28;20183;-74
2020/12/08 01:01:12;;;;;;;10.33;8.00;;;;;;;-0.88;84.24;93970.09;5094557;28;20179;-74
2020/12/08 01:03:38;;;;;;;13.53;8.53;;;;;;;-0.86;83.88;93973.34;5112115;28;20632;-74
2020/12/08 01:06:07;;;;;;;13.07;9.03;;;;;;;-0.77;83.24;93968.47;5112439;28;20168;-74
2020/12/08 01:08:32;;;;;;;12.50;9.00;;;;;;;-0.83;83.25;93967.19;5085700;28;20183;-74
2020/12/08 01:10:58;;;;;;;11.63;8.77;;;;;;;-0.80;83.14;93966.94;5080419;28;20255;-74
2020/12/08 01:13:23;;;;;;;12.63;9.60;;;;;;;-0.81;83.03;93957.66;5112237;28;20237;-74
2020/12/08 01:15:50;;;;;;;11.73;8.63;;;;;;;-0.83;83.27;93962.09;5111200;28;20241;-74
2020/12/08 01:18:15;;;;;;;11.33;7.93;;;;;;;-0.74;82.91;93960.56;5105314;28;20179;-74
2020/12/08 01:20:41;;;;;;;11.97;8.60;;;;;;;-0.85;83.24;93963.94;5093894;28;20231;-74
2020/12/08 01:23:06;;;;;;;14.73;9.57;;;;;;;-0.93;83.43;93954.34;5110891;28;20192;-74
2020/12/08 01:25:32;;;;;;;12.10;9.27;;;;;;;-0.88;83.09;93949.72;5111131;28;20195;-74
2020/12/08 01:27:58;;;;;;;11.80;9.60;;;;;;;-0.79;83.16;93948.19;5111104;28;20267;-74
2020/12/08 01:30:23;;;;;;;11.67;8.53;;;;;;;-0.94;83.14;93949.38;5104491;28;20282;-74
2020/12/08 01:32:48;;;;;;;12.50;9.20;;;;;;;-0.95;83.48;93963.84;5093912;28;20198;-74
2020/12/08 01:35:17;;;;;;;12.17;9.37;;;;;;;-0.96;83.75;93963.97;5110767;28;20590;-74
2020/12/08 01:37:43;;;;;;;13.73;10.33;;;;;;;-1.00;83.65;93957.47;5110945;28;20192;-74
2020/12/08 01:40:08;;;;;;;15.17;10.77;;;;;;;-0.94;83.31;93955.28;5102238;28;20176;-74
2020/12/08 01:42:33;;;;;;;14.73;10.57;;;;;;;-0.91;83.40;93951.66;5093161;28;20196;-74
2020/12/08 01:44:58;;;;;;;13.47;10.43;;;;;;;-0.86;83.26;93960.59;5110432;28;20204;-74
2020/12/08 01:47:24;;;;;;;14.67;10.37;;;;;;;-1.00;83.28;93948.09;5110971;28;20709;-74
2020/12/08 01:49:50;;;;;;;14.93;11.27;;;;;;;-1.04;83.53;93951.81;5092244;28;20178;-74
2020/12/08 01:52:15;;;;;;;15.07;10.43;;;;;;;-1.15;83.86;93955.19;5090283;28;20175;-74
2020/12/08 01:54:42;;;;;;;14.93;10.53;;;;;;;-1.16;83.99;93948.44;5093762;28;20172;-74
2020/12/08 01:57:07;;;;;;;19.00;12.10;;;;;;;-1.22;83.63;93959.09;5111582;28;20243;-74
2020/12/08 01:59:33;;;;;;;17.10;12.03;;;;;;;-1.30;83.95;93948.69;5110385;28;20175;-74
2020/12/08 02:01:58;;;;;;;15.77;11.50;;;;;;;-1.26;84.08;93950.06;5086814;28;20180;-74
2020/12/08 02:04:23;;;;;;;20.03;12.57;;;;;;;-1.20;84.14;93954.69;5101959;28;20194;-75
2020/12/08 02:06:49;;;;;;;15.47;11.20;;;;;;;-1.33;83.88;93948.09;5111201;28;20175;-75
2020/12/08 02:09:14;;;;;;;17.10;11.23;;;;;;;-1.31;84.44;93941.97;5093356;28;20183;-74
2020/12/08 02:11:39;;;;;;;16.90;11.93;;;;;;;-1.39;84.31;93943.47;5090679;28;20535;-75
2020/12/08 02:14:04;;;;;;;19.57;12.77;;;;;;;-1.43;84.36;93935.22;5075930;28;20187;-74
2020/12/08 02:16:30;;;;;;;23.00;14.03;;;;;;;-1.57;84.42;93940.56;5093273;28;20241;-75
2020/12/08 02:18:55;;;;;;;18.50;12.53;;;;;;;-1.64;84.73;93937.66;5093199;28;20176;-74
2020/12/08 02:21:28;;;;;;;19.90;13.30;;;;;;;-1.67;84.84;93942.19;5111820;28;20523;-74
2020/12/08 02:23:54;;;;;;;15.93;11.67;;;;;;;-1.66;85.28;93936.16;5075153;28;20291;-74
2020/12/08 02:26:20;;;;;;;20.20;12.60;;;;;;;-1.70;85.08;93938.09;5111916;28;20198;-75
2020/12/08 02:28:45;;;;;;;15.03;11.50;;;;;;;-1.74;85.02;93945.16;5092765;28;20205;-75
2020/12/08 02:31:10;;;;;;;17.03;11.37;;;;;;;-1.76;85.42;93952.09;5111543;28;20185;-74
2020/12/08 02:33:36;;;;;;;20.20;12.97;;;;;;;-1.73;85.24;93949.31;5089172;28;20752;-75
2020/12/08 02:36:01;;;;;;;17.20;11.53;;;;;;;-1.59;85.00;93950.88;5094865;28;20207;-75
2020/12/08 02:38:26;;;;;;;17.80;12.03;;;;;;;-1.53;84.84;93950.38;5097036;28;20265;-75
2020/12/08 02:40:52;;;;;;;19.00;13.17;;;;;;;-1.46;84.80;93946.47;5097102;28;20215;-75
2020/12/08 02:43:17;;;;;;;19.17;12.70;;;;;;;-1.43;84.34;93947.97;5095447;28;20278;-74
2020/12/08 02:45:43;;;;;;;19.90;12.33;;;;;;;-1.44;84.78;93952.25;5109755;28;20210;-74
2020/12/08 02:48:08;;;;;;;18.90;13.07;;;;;;;-1.41;84.73;93941.03;5097028;28;20183;-75
2020/12/08 02:50:35;;;;;;;21.13;12.87;;;;;;;-1.44;85.03;93944.59;5113269;28;20175;-75
2020/12/08 02:53:01;;;;;;;18.37;12.77;;;;;;;-1.46;84.87;93943.91;5130920;27;20285;-75
2020/12/08 02:55:26;;;;;;;19.60;14.00;;;;;;;-1.31;84.89;93946.25;5099220;28;20274;-75
2020/12/08 02:57:51;;;;;;;20.57;13.60;;;;;;;-1.39;84.70;93943.47;5114850;28;20608;-75
2020/12/08 03:00:16;;;;;;;20.37;13.53;;;;;;;-1.38;84.73;93945.91;5079505;28;20180;-75
2020/12/08 03:02:42;;;;;;;19.67;14.17;;;;;;;-1.34;84.94;93943.91;5115094;28;20206;-75
2020/12/08 03:05:07;;;;;;;20.13;13.57;;;;;;;-1.34;84.42;93934.53;5091049;28;20192;-74
2020/12/08 03:07:33;;;;;;;21.70;14.17;;;;;;;-1.25;84.36;93935.59;5096191;28;20234;-75
2020/12/08 03:09:58;;;;;;;21.87;14.10;;;;;;;-1.25;83.90;93938.13;5114571;28;20185;-75
2020/12/08 03:12:24;;;;;;;21.70;14.03;;;;;;;-1.23;84.39;93918.47;5113079;28;20181;-75
2020/12/08 03:14:49;;;;;;;18.40;12.80;;;;;;;-1.26;84.37;93928.88;5114845;27;20175;-75
2020/12/08 03:17:14;;;;;;;20.97;14.37;;;;;;;-1.30;84.58;93912.22;5080823;28;20578;-74
2020/12/08 03:19:39;;;;;;;19.17;12.90;;;;;;;-1.31;84.37;93916.50;5096190;28;20186;-75
2020/12/08 03:22:05;;;;;;;20.40;13.50;;;;;;;-1.28;84.42;93923.09;5096040;28;20179;-75
2020/12/08 03:24:31;;;;;;;21.03;13.97;;;;;;;-1.24;84.22;93930.38;5113384;28;20666;-74
2020/12/08 03:26:56;;;;;;;21.87;13.63;;;;;;;-1.26;83.81;93928.88;5086177;28;20191;-74
2020/12/08 03:29:21;;;;;;;19.17;12.40;;;;;;;-1.16;83.38;93927.25;5093824;28;20193;-75
2020/12/08 03:31:47;;;;;;;20.70;13.60;;;;;;;-1.20;83.98;93936.06;5113908;28;20204;-75
2020/12/08 03:34:12;;;;;;;20.70;14.03;;;;;;;-1.16;83.83;93932.34;5096041;28;20194;-75
2020/12/08 03:36:37;;;;;;;20.77;14.13;;;;;;;-1.17;83.34;93928.19;5111981;28;20214;-74
2020/12/08 03:39:03;;;;;;;21.37;13.07;;;;;;;-1.20;83.77;93936.06;5075925;28;20179;-74
2020/12/08 03:41:28;;;;;;;19.80;13.70;;;;;;;-1.31;84.35;93928.44;5095999;28;20621;-75
2020/12/08 03:43:53;;;;;;;19.63;13.73;;;;;;;-1.30;84.55;93920.66;5112715;28;20678;-75
2020/12/08 03:46:23;;;;;;;19.70;13.53;;;;;;;-1.31;84.84;93920.78;5095831;28;20182;-75
2020/12/08 03:48:50;;;;;;;21.63;14.27;;;;;;;-1.21;84.33;93924.25;5097670;28;20666;-75
2020/12/08 03:51:16;;;;;;;19.70;13.33;;;;;;;-1.24;83.90;93917.63;5098459;28;20172;-74
2020/12/08 03:53:42;;;;;;;19.90;12.77;;;;;;;-1.19;84.08;93923.22;5094973;28;20239;-75
2020/12/08 03:56:15;;;;;;;21.33;13.73;;;;;;;-1.24;84.20;93925.28;5112892;28;20200;-74
2020/12/08 03:58:40;;;;;;;20.40;14.37;;;;;;;-1.19;84.14;93912.22;5110999;28;20585;-75
2020/12/08 04:01:07;;;;;;;21.53;13.27;;;;;;;-1.18;84.24;93912.09;5095780;28;20260;-75
2020/12/08 04:03:32;;;;;;;21.87;13.77;;;;;;;-1.27;84.12;93919.63;5095216;28;20290;-74
2020/12/08 04:06:04;;;;;;;21.57;13.17;;;;;;;-1.27;84.39;93917.06;5095204;28;20251;-75
2020/12/08 04:08:29;;;;;;;20.70;13.13;;;;;;;-1.25;84.31;93918.56;5095641;28;20170;-75
2020/12/08 04:10:55;;;;;;;22.53;14.00;;;;;;;-1.32;84.58;93916.63;5094908;28;20642;-75
2020/12/08 04:13:20;;;;;;;20.93;14.73;;;;;;;-1.29;84.30;93908.75;5097345;28;20290;-75
2020/12/08 04:15:46;;;;;;;21.00;14.27;;;;;;;-1.25;84.51;93927.94;5094854;28;20677;-75
2020/12/08 04:18:11;;;;;;;21.10;14.37;;;;;;;-1.21;84.01;93917.44;5092411;28;20643;-75
2020/12/08 04:20:40;;;;;;;22.40;14.47;;;;;;;-1.17;83.48;93912.91;5094624;28;20187;-75
2020/12/08 04:23:05;;;;;;;20.00;13.03;;;;;;;-1.20;83.85;93911.41;5078244;28;20240;-75
2020/12/08 04:25:32;;;;;;;21.90;14.53;;;;;;;-1.25;83.98;93920.31;5095123;28;20168;-75
2020/12/08 04:27:58;;;;;;;23.53;14.80;;;;;;;-1.32;84.37;93929.34;5091154;28;20202;-75
2020/12/08 04:30:23;;;;;;;18.80;13.63;;;;;;;-1.29;84.23;93934.22;5077450;28;20662;-74
2020/12/08 04:32:48;;;;;;;20.63;14.63;;;;;;;-1.28;84.46;93931.53;5113181;28;20205;-74
2020/12/08 04:35:13;;;;;;;23.83;14.90;;;;;;;-1.29;83.99;93929.94;5111337;28;20175;-75
2020/12/08 04:37:39;;;;;;;21.07;13.67;;;;;;;-1.13;83.95;93933.88;5111817;28;20732;-74
2020/12/08 04:40:04;;;;;;;23.93;15.30;;;;;;;-1.15;83.82;93926.31;5103958;28;20197;-75
2020/12/08 04:42:30;;;;;;;19.83;13.27;;;;;;;-1.22;83.77;93923.44;5102124;28;20200;-74
2020/12/08 04:44:56;;;;;;;21.37;14.27;;;;;;;-1.23;83.84;93932.03;5094616;28;20183;-75
2020/12/08 04:47:21;;;;;;;22.70;13.77;;;;;;;-1.23;83.94;93938.84;5111885;28;20254;-75
2020/12/08 04:49:50;;;;;;;24.73;15.03;;;;;;;-1.14;83.42;93933.06;5084755;28;20270;-74
2020/12/08 04:52:15;;;;;;;20.33;13.23;;;;;;;-1.12;83.26;93931.19;5091925;28;20211;-74
2020/12/08 04:54:41;;;;;;;26.83;15.00;;;;;;;-1.07;83.42;93934.19;5111237;28;20203;-74
2020/12/08 04:57:07;;;;;;;22.00;13.63;;;;;;;-1.12;83.59;93945.69;5111628;28;20249;-74
2020/12/08 04:59:32;;;;;;;21.07;13.63;;;;;;;-1.04;83.02;93949.25;5112496;28;20179;-74
2020/12/08 05:02:02;;;;;;;25.77;15.50;;;;;;;-1.03;83.31;93937.31;5090045;28;20179;-74
2020/12/08 05:04:27;;;;;;;25.63;14.50;;;;;;;-1.07;82.80;93933.38;5110148;28;20210;-75
2020/12/08 05:07:06;;;;;;;22.03;14.57;;;;;;;-1.02;83.28;93929.56;5111157;28;20176;-75
2020/12/08 05:09:31;;;;;;;22.10;14.93;;;;;;;-1.13;83.40;93928.78;5093843;28;20232;-75
2020/12/08 05:12:00;;;;;;;25.37;15.43;;;;;;;-1.18;83.19;93931.66;5082102;28;20741;-73
2020/12/08 05:14:26;;;;;;;22.40;15.57;;;;;;;-1.16;83.52;93929.78;5112347;28;20272;-75
2020/12/08 05:17:03;;;;;;;29.70;15.80;;;;;;;-1.16;83.68;93924.69;5110721;28;20203;-74
2020/12/08 05:19:29;;;;;;;25.97;16.40;;;;;;;-1.16;83.43;93919.59;5112134;28;20175;-74
2020/12/08 05:21:54;;;;;;;25.63;15.07;;;;;;;-1.14;83.83;93925.41;5104403;28;20176;-75
2020/12/08 05:24:26;;;;;;;26.93;15.70;;;;;;;-1.17;83.80;93918.00;5093188;28;20198;-75
2020/12/08 05:26:54;;;;;;;24.80;15.47;;;;;;;-1.16;83.87;93915.31;5093987;28;20654;-75
2020/12/08 05:29:20;;;;;;;25.23;15.77;;;;;;;-1.18;83.95;93908.72;5093579;28;20186;-75
2020/12/08 05:31:46;;;;;;;25.63;15.13;;;;;;;-1.12;83.71;93915.09;5091824;28;20484;-76
2020/12/08 05:34:11;;;;;;;23.60;15.03;;;;;;;-1.09;83.98;93908.03;5093407;28;20199;-74
2020/12/08 05:36:41;;;;;;;26.57;15.87;;;;;;;-1.12;83.55;93904.91;5077101;28;20215;-75
2020/12/08 05:39:06;;;;;;;24.70;16.03;;;;;;;-1.19;84.07;93909.66;5093206;28;20187;-75
2020/12/08 05:41:32;;;;;;;24.60;15.87;;;;;;;-1.12;83.43;93915.91;5093864;28;20194;-75
2020/12/08 05:44:04;;;;;;;27.73;16.93;;;;;;;-1.19;83.94;93925.75;5104218;28;20573;-75
2020/12/08 05:46:39;;;;;;;26.13;15.83;;;;;;;-1.24;84.32;93938.00;5076629;28;20177;-75
2020/12/08 05:49:05;;;;;;;24.37;15.27;;;;;;;-1.15;83.64;93926.31;5093471;28;20257;-75
2020/12/08 05:51:30;;;;;;;29.97;16.77;;;;;;;-1.25;84.15;93930.50;5076867;28;20274;-75
2020/12/08 05:53:56;;;;;;;27.43;15.47;;;;;;;-1.30;84.29;93927.50;5087983;28;20203;-75
2020/12/08 05:56:21;;;;;;;25.53;15.67;;;;;;;-1.22;84.13;93930.28;5073951;28;20199;-75
2020/12/08 05:58:53;;;;;;;25.00;15.03;;;;;;;-1.25;84.38;93926.22;5111509;28;20179;-75
2020/12/08 06:01:19;;;;;;;24.57;15.43;;;;;;;-1.31;84.32;93910.59;5093733;28;20545;-75
2020/12/08 06:03:53;;;;;;;25.70;15.47;;;;;;;-1.23;84.00;93910.84;5109235;28;20202;-75
2020/12/08 06:06:18;;;;;;;21.37;14.37;;;;;;;-1.16;84.10;93901.78;5099739;28;20179;-75
2020/12/08 06:08:47;;;;;;;25.27;15.97;;;;;;;-1.17;83.90;93897.59;5109137;28;20221;-75
2020/12/08 06:11:14;;;;;;;26.20;15.73;;;;;;;-1.22;83.91;93889.53;5082815;28;20189;-75
2020/12/08 06:13:41;;;;;;;23.73;14.37;;;;;;;-1.18;83.82;93890.91;5097732;28;20205;-75
2020/12/08 06:16:14;;;;;;;24.53;15.17;;;;;;;-1.14;83.84;93887.22;5080733;28;20256;-75
2020/12/08 06:18:40;;;;;;;25.20;15.60;;;;;;;-1.10;83.67;93898.75;5113329;28;20274;-75
2020/12/08 06:21:23;;;;;;;23.37;15.20;;;;;;;-1.07;83.63;93888.34;5097272;28;20599;-75
2020/12/08 06:23:59;;;;;;;22.53;14.83;;;;;;;-1.05;82.69;93881.41;5097445;28;20768;-75
2020/12/08 06:26:28;;;;;;;23.67;15.17;;;;;;;-1.06;82.77;93884.88;5112363;28;20271;-75
2020/12/08 06:28:54;;;;;;;25.47;15.03;;;;;;;-0.99;82.73;93880.91;5079846;28;20187;-75
2020/12/08 06:31:20;;;;;;;24.70;15.33;;;;;;;-1.02;82.68;93886.25;5080278;28;20539;-75
2020/12/08 06:33:50;;;;;;;22.50;14.40;;;;;;;-1.06;83.00;93884.03;5097423;28;20206;-75
2020/12/08 06:36:17;;;;;;;23.37;14.13;;;;;;;-1.12;83.42;93887.88;5095017;28;20682;-75
2020/12/08 06:38:42;;;;;;;22.77;14.57;;;;;;;-1.15;83.39;93891.50;5096291;28;20182;-76
2020/12/08 06:41:07;;;;;;;27.67;15.23;;;;;;;-1.09;83.44;93890.19;5114135;28;20174;-76
2020/12/08 06:43:37;;;;;;;27.07;16.30;;;;;;;-0.96;82.88;93890.88;5096911;28;20537;-75
2020/12/08 06:46:09;;;;;;;29.50;16.27;;;;;;;-1.08;83.01;93891.81;5114327;28;20171;-75
2020/12/08 06:48:35;;;;;;;27.93;15.50;;;;;;;-1.20;83.51;93913.13;5094769;28;20179;-74
2020/12/08 06:51:01;;;;;;;25.07;16.67;;;;;;;-1.20;83.82;93923.31;5097111;28;20273;-75
2020/12/08 06:53:26;;;;;;;26.03;16.03;;;;;;;-1.21;83.93;93921.72;5113935;28;20610;-74
2020/12/08 06:55:51;;;;;;;24.63;15.10;;;;;;;-1.23;83.95;93932.03;5114659;28;20182;-75
2020/12/08 06:58:18;;;;;;;27.67;16.20;;;;;;;-1.20;84.16;93929.22;5099729;28;20188;-75
2020/12/08 07:00:46;;;;;;;25.20;15.73;;;;;;;-1.22;84.02;93935.38;5079912;28;20233;-74
2020/12/08 07:03:13;;;;;;;27.57;16.70;;;;;;;-1.18;83.78;93941.84;5112948;28;20226;-74
2020/12/08 07:05:38;;;;;;;30.33;17.70;;;;;;;-1.25;84.14;93940.69;5113381;28;20228;-74
2020/12/08 07:08:05;;;;;;;30.87;17.80;;;;;;;-1.12;83.92;93946.47;5110481;28;20182;-74
2020/12/08 07:10:37;;;;;;;26.27;16.27;;;;;;;-1.11;84.08;93958.28;5096148;28;20572;-74
2020/12/08 07:13:09;;;;;;;27.93;17.80;;;;;;;-1.16;83.91;93966.25;5113667;28;20214;-74
2020/12/08 07:15:34;;;;;;;28.60;17.17;;;;;;;-1.15;83.79;93964.53;5096347;28;20176;-74
2020/12/08 07:18:04;;;;;;;32.50;20.37;;;;;;;-1.15;84.11;93967.91;5114686;28;20234;-74
2020/12/08 07:20:30;;;;;;;31.47;18.83;;;;;;;-1.09;83.90;93976.81;5108026;28;20266;-74
2020/12/08 07:22:55;;;;;;;27.13;16.63;;;;;;;-1.09;83.91;93976.81;5106283;28;20332;-74
2020/12/08 07:25:22;;;;;;;27.37;16.73;;;;;;;-1.05;83.78;93965.47;5078932;28;20175;-74
2020/12/08 07:27:50;;;;;;;30.80;18.03;;;;;;;-1.07;83.70;93962.22;5096568;28;20651;-75
2020/12/08 07:30:18;;;;;;;29.77;17.80;;;;;;;-1.13;83.69;93961.88;5103570;28;20192;-74
2020/12/08 07:32:43;;;;;;;30.13;17.63;;;;;;;-1.05;83.98;93967.22;5079149;28;20198;-75
2020/12/08 07:35:27;;;;;;;28.63;17.83;;;;;;;-1.06;83.62;93968.13;5096001;28;20175;-74
2020/12/08 07:37:55;;;;;;;29.77;17.43;;;;;;;-0.99;84.16;93972.63;5095937;28;20239;-74
2020/12/08 07:40:20;;;;;;;27.87;17.10;;;;;;;-0.95;83.21;93976.59;5092178;28;20694;-75
2020/12/08 07:42:48;;;;;;;29.57;18.63;;;;;;;-1.02;83.65;93977.16;5095124;28;20191;-75
2020/12/08 07:45:13;;;;;;;31.30;17.37;;;;;;;-0.98;83.73;93981.09;5095352;28;20178;-75
2020/12/08 07:47:38;;;;;;;31.13;18.43;;;;;;;-0.95;83.26;93983.41;5091979;28;20168;-75
2020/12/08 07:50:04;;;;;;;35.03;18.47;;;;;;;-0.96;83.26;93982.63;5093560;28;20180;-75
2020/12/08 07:52:29;;;;;;;31.23;18.37;;;;;;;-0.87;83.31;93973.47;5108422;28;20183;-75
2020/12/08 07:54:55;;;;;;;30.30;18.17;;;;;;;-0.92;83.09;93973.78;5095741;28;20183;-75
2020/12/08 07:57:20;;;;;;;29.43;17.83;;;;;;;-0.82;82.88;93984.09;5112207;28;20252;-75
2020/12/08 07:59:46;;;;;;;29.87;16.93;;;;;;;-0.86;82.96;93978.44;5095456;28;20252;-75
2020/12/08 08:02:11;;;;;;;28.07;17.33;;;;;;;-0.82;82.84;93973.09;5100053;28;20534;-75
2020/12/08 08:04:36;;;;;;;28.97;16.87;;;;;;;-0.81;82.32;93965.31;5113389;28;20174;-75
2020/12/08 08:07:01;;;;;;;31.37;17.07;;;;;;;-0.63;82.21;93971.53;5112214;28;20178;-75
2020/12/08 08:09:27;;;;;;;26.93;16.27;;;;;;;-0.64;82.36;93969.94;5113705;28;20211;-75
2020/12/08 08:11:52;;;;;;;27.43;16.57;;;;;;;-0.63;82.10;93963.91;5112286;28;20604;-75
2020/12/08 08:14:18;;;;;;;27.20;15.80;;;;;;;-0.54;82.01;93962.38;5111731;28;20207;-75
2020/12/08 08:16:43;;;;;;;24.17;14.97;;;;;;;-0.50;81.76;93966.31;5113670;28;20219;-76
2020/12/08 08:19:09;;;;;;;25.53;16.13;;;;;;;-0.44;81.39;93968.41;5094756;28;20373;-75
2020/12/08 08:21:34;;;;;;;23.83;15.40;;;;;;;-0.49;81.53;93965.38;5095451;28;20195;-75
2020/12/08 08:24:00;;;;;;;25.47;16.20;;;;;;;-0.55;81.35;93968.41;5092807;28;20575;-75
2020/12/08 08:26:25;;;;;;;26.33;15.50;;;;;;;-0.50;81.61;93968.06;5094841;28;20183;-75
2020/12/08 08:28:51;;;;;;;23.80;14.30;;;;;;;-0.52;81.38;93963.09;5112700;28;20190;-75
2020/12/08 08:31:16;;;;;;;24.37;15.27;;;;;;;-0.50;81.34;93965.50;5095171;28;20181;-75
2020/12/08 08:33:42;;;;;;;22.57;14.47;;;;;;;-0.42;81.35;93966.53;5108738;27;20206;-75
2020/12/08 08:36:07;;;;;;;25.97;15.47;;;;;;;-0.42;81.16;93958.06;5077872;28;20226;-75
2020/12/08 08:38:32;;;;;;;21.17;13.70;;;;;;;-0.42;80.92;93956.34;5112926;28;20176;-76
2020/12/08 08:40:58;;;;;;;23.23;14.57;;;;;;;-0.30;80.72;93969.84;5111418;28;20172;-75
2020/12/08 08:43:25;;;;;;;27.73;16.53;;;;;;;-0.18;80.23;93965.50;5111775;28;21128;-75
2020/12/08 08:45:52;;;;;;;27.07;16.03;;;;;;;-0.23;80.99;93970.19;5096266;28;20244;-75
2020/12/08 08:48:17;;;;;;;25.27;16.53;;;;;;;-0.18;80.90;93975.72;5094715;28;20193;-75
2020/12/08 08:50:42;;;;;;;28.90;17.90;;;;;;;-0.26;80.90;93973.81;5094189;28;20187;-75
2020/12/08 08:53:08;;;;;;;37.27;21.23;;;;;;;-0.19;80.97;93969.81;5094683;28;20194;-75
2020/12/08 08:55:33;;;;;;;26.63;17.33;;;;;;;-0.13;80.86;93982.09;5107577;28;20194;-75
2020/12/08 08:57:59;;;;;;;25.63;16.10;;;;;;;0.04;80.63;93972.28;5112447;28;20224;-75
2020/12/08 09:00:24;;;;;;;28.83;15.60;;;;;;;0.06;80.55;93980.63;5112138;28;20179;-75
2020/12/08 09:02:49;;;;;;;28.13;15.73;;;;;;;0.12;80.32;93983.50;5128583;27;20663;-75
2020/12/08 09:05:15;;;;;;;25.70;16.50;;;;;;;0.08;80.45;93979.56;5111509;28;20171;-75
2020/12/08 09:07:40;;;;;;;28.33;16.97;;;;;;;0.10;80.50;93995.59;5103905;28;20196;-75
2020/12/08 09:10:06;;;;;;;28.87;17.30;;;;;;;0.02;80.96;94000.50;5093934;28;20550;-75
2020/12/08 09:12:31;;;;;;;27.50;16.70;;;;;;;0.04;80.23;93997.81;5093907;28;20203;-75
2020/12/08 09:14:59;;;;;;;26.43;16.67;;;;;;;0.00;80.40;94007.47;5113336;28;20387;-74
2020/12/08 09:17:25;;;;;;;27.97;17.00;;;;;;;-0.10;80.34;94014.19;5105661;28;20302;-74
2020/12/08 09:19:52;;;;;;;30.93;18.67;;;;;;;-0.12;80.29;94018.63;5084035;28;20266;-75
2020/12/08 09:22:17;;;;;;;26.77;17.67;;;;;;;-0.31;81.05;94014.97;5093996;28;20183;-75
2020/12/08 09:24:42;;;;;;;28.47;17.73;;;;;;;-0.39;80.91;94012.19;5094250;28;20240;-75
2020/12/08 09:27:08;;;;;;;28.80;17.60;;;;;;;-0.50;81.39;94013.97;5091991;28;20265;-75
2020/12/08 09:29:34;;;;;;;30.40;18.10;;;;;;;-0.47;81.56;94009.44;5111068;28;20564;-75
2020/12/08 09:32:00;;;;;;;29.10;18.77;;;;;;;-0.50;81.67;94017.31;5086730;28;20183;-75
2020/12/08 09:34:26;;;;;;;32.97;19.60;;;;;;;-0.49;81.84;94016.38;5093041;28;20195;-75
2020/12/08 09:36:53;;;;;;;30.83;19.07;;;;;;;-0.46;81.59;94017.88;5093434;28;20202;-75
2020/12/08 09:39:18;;;;;;;28.10;17.87;;;;;;;-0.43;82.10;94020.22;5109131;28;20243;-75
2020/12/08 09:41:43;;;;;;;33.90;20.03;;;;;;;-0.36;81.64;94017.03;5093698;28;20174;-75
2020/12/08 09:44:10;;;;;;;31.20;18.93;;;;;;;-0.39;81.87;94007.09;5093389;28;20560;-75
2020/12/08 09:46:40;;;;;;;30.83;19.07;;;;;;;-0.36;81.60;94011.13;5076321;28;20187;-75
2020/12/08 09:49:06;;;;;;;31.00;19.07;;;;;;;-0.24;81.75;94012.75;5104317;28;20187;-74
2020/12/08 09:51:31;;;;;;;31.27;18.03;;;;;;;0.01;81.58;94008.28;5076171;28;20178;-75
2020/12/08 09:53:57;;;;;;;30.23;18.37;;;;;;;0.15;80.68;94002.88;5093490;28;20248;-74
2020/12/08 09:56:23;;;;;;;30.97;17.40;;;;;;;0.19;80.58;93994.03;5093866;28;20568;-75
2020/12/08 09:58:49;;;;;;;28.87;16.97;;;;;;;0.38;80.66;93995.91;5091647;28;20263;-75
2020/12/08 10:01:14;;;;;;;27.80;17.77;;;;;;;0.57;79.87;93994.28;5092864;28;20696;-74
2020/12/08 10:03:40;;;;;;;26.37;16.87;;;;;;;0.66;79.61;93995.28;5112364;28;20270;-75
2020/12/08 10:06:06;;;;;;;25.87;16.30;;;;;;;0.78;78.25;93983.25;5111537;28;20678;-75
2020/12/08 10:08:32;;;;;;;23.40;15.13;;;;;;;0.97;78.17;93987.63;5111531;28;20175;-75
2020/12/08 10:10:57;;;;;;;30.00;17.93;;;;;;;0.92;77.79;93994.88;5094688;28;20198;-74
2020/12/08 10:13:22;;;;;;;33.53;19.60;;;;;;;0.76;77.76;93987.66;5093536;28;20198;-74
2020/12/08 10:15:48;;;;;;;29.97;19.77;;;;;;;0.57;78.41;94001.16;5093185;28;20179;-74
2020/12/08 10:18:13;;;;;;;29.40;18.83;;;;;;;0.60;78.59;94011.09;5093510;28;20324;-74
2020/12/08 10:20:38;;;;;;;33.00;19.70;;;;;;;0.73;78.38;94011.75;5108751;28;20267;-74
2020/12/08 10:23:06;;;;;;;30.17;18.90;;;;;;;0.80;78.48;94004.38;5093076;28;20196;-75
2020/12/08 10:25:32;;;;;;;28.80;18.00;;;;;;;0.99;78.34;93996.81;5110209;28;20176;-74
2020/12/08 10:27:58;;;;;;;30.07;17.97;;;;;;;1.02;78.26;93996.53;5112028;28;20176;-75
2020/12/08 10:30:24;;;;;;;29.00;17.87;;;;;;;1.05;78.23;93998.03;5110413;28;20191;-75
2020/12/08 10:32:49;;;;;;;26.67;17.57;;;;;;;1.13;77.81;93995.63;5105161;28;20199;-74
2020/12/08 10:35:15;;;;;;;28.03;16.87;;;;;;;1.17;77.30;93989.34;5093278;28;20179;-75
2020/12/08 10:37:40;;;;;;;27.47;16.67;;;;;;;1.23;77.07;93991.38;5109888;28;20203;-74
2020/12/08 10:40:05;;;;;;;25.47;16.60;;;;;;;1.25;77.26;94007.41;5110118;28;20172;-74
2020/12/08 10:42:31;;;;;;;27.23;17.43;;;;;;;1.30;76.87;94005.25;5081651;28;20696;-74
2020/12/08 10:44:56;;;;;;;26.80;17.13;;;;;;;1.31;76.89;94004.31;5111359;28;20580;-75
2020/12/08 10:47:21;;;;;;;28.43;18.33;;;;;;;1.37;76.19;94001.25;5111258;28;20172;-75
2020/12/08 10:49:47;;;;;;;25.80;17.70;;;;;;;1.26;76.54;93993.69;5110307;28;20591;-75
2020/12/08 10:52:12;;;;;;;28.63;17.63;;;;;;;1.45;76.47;93998.06;5106500;28;20226;-74
2020/12/08 10:54:37;;;;;;;28.90;17.93;;;;;;;1.52;76.19;93990.66;5075428;28;20187;-75
2020/12/08 10:57:03;;;;;;;29.03;17.63;;;;;;;1.40;76.33;93997.63;5094806;28;20206;-74
2020/12/08 10:59:28;;;;;;;28.03;18.53;;;;;;;1.51;76.13;93992.41;5114521;27;20205;-74
2020/12/08 11:01:56;;;;;;;28.27;17.73;;;;;;;1.49;76.69;93991.72;5115246;28;20241;-74
2020/12/08 11:04:21;;;;;;;31.00;18.87;;;;;;;1.44;76.64;93991.31;5094786;28;20200;-74
2020/12/08 11:06:47;;;;;;;28.90;17.97;;;;;;;1.59;76.63;93990.03;5079704;28;20182;-75
2020/12/08 11:09:12;;;;;;;27.63;17.97;;;;;;;1.72;76.08;93996.63;5114337;28;20181;-74
2020/12/08 11:11:37;;;;;;;30.87;18.73;;;;;;;1.79;76.07;93990.06;5114930;28;20232;-74
2020/12/08 11:14:03;;;;;;;28.47;18.27;;;;;;;1.86;75.17;93989.38;5094065;28;20252;-75